Time;durP1;ratioP1;P1;durP2;ratioP2;P2;SDS_P1;SDS_P2;PMS_P1;PMS_P2;Temp;Humidity;BMP_temperature;BMP_pressure;BME280_temperature;BME280_humidity;BME280_pressure;Samples;Min_cycle;Max_cycle;Signal;HPM_P1;HPM_P2
2022/05/21 00:00:43;;;;;;;11.65;2.28;;;;;;;;;;5055578;28;20029;-66
2022/05/21 00:03:09;;;;;;;9.98;1.95;;;;;;;;;;5055146;28;20417;-65
2022/05/21 00:05:36;;;;;;;7.88;2.05;;;;;;;;;;5055133;28;20385;-66
2022/05/21 00:08:08;;;;;;;4.20;2.10;;;;;;;;;;5055292;28;20027;-66
2022/05/21 00:10:34;;;;;;;8.82;1.75;;;;;;;;;;5054310;28;20053;-65
2022/05/21 00:13:01;;;;;;;6.18;1.75;;;;;;;;;;5054815;28;20021;-65
2022/05/21 00:15:28;;;;;;;9.02;1.98;;;;;;;;;;5054693;28;20040;-66
2022/05/21 00:17:54;;;;;;;6.20;1.77;;;;;;;;;;5055088;28;20108;-65
2022/05/21 00:23:12;;;;;;;6.47;2.42;;;;;;;;;;5054927;28;20044;-65
2022/05/21 00:25:39;;;;;;;8.20;1.90;;;;;;;;;;5054927;28;20024;-66
2022/05/21 00:28:05;;;;;;;5.70;1.65;;;;;;;;;;5054608;28;20029;-65
2022/05/21 00:30:32;;;;;;;8.35;2.03;;;;;;;;;;5054554;28;20090;-65
2022/05/21 00:32:58;;;;;;;5.60;2.15;;;;;;;;;;5054600;28;20031;-65
2022/05/21 00:35:24;;;;;;;4.32;1.58;;;;;;;;;;5054615;28;20033;-65
2022/05/21 00:37:50;;;;;;;2.90;1.45;;;;;;;;;;5054842;28;20441;-65
2022/05/21 00:40:16;;;;;;;6.78;1.77;;;;;;;;;;5054617;28;20060;-65
2022/05/21 00:42:46;;;;;;;5.65;1.77;;;;;;;;;;5054687;28;20359;-65
2022/05/21 00:45:12;;;;;;;4.43;1.40;;;;;;;;;;5054471;28;20032;-65
2022/05/21 00:47:39;;;;;;;8.00;1.73;;;;;;;;;;5053838;28;20112;-65
2022/05/21 00:50:07;;;;;;;9.20;1.73;;;;;;;;;;5051417;28;20052;-65
2022/05/21 00:52:34;;;;;;;5.10;1.63;;;;;;;;;;5051540;28;20044;-66
2022/05/21 00:55:07;;;;;;;3.30;1.33;;;;;;;;;;5054117;28;20452;-65
2022/05/21 00:57:35;;;;;;;3.88;1.67;;;;;;;;;;5053747;28;20098;-65
2022/05/21 01:00:10;;;;;;;4.22;1.58;;;;;;;;;;5051524;28;20466;-66
2022/05/21 01:02:42;;;;;;;3.83;1.50;;;;;;;;;;5051410;28;20025;-65
2022/05/21 01:05:10;;;;;;;7.97;1.58;;;;;;;;;;5052669;28;20029;-65
2022/05/21 01:07:37;;;;;;;6.05;1.35;;;;;;;;;;5053981;28;20029;-65
2022/05/21 01:10:04;;;;;;;6.57;1.75;;;;;;;;;;5053759;28;20017;-65
2022/05/21 01:12:33;;;;;;;3.53;1.50;;;;;;;;;;5053698;28;20563;-66
2022/05/21 01:15:01;;;;;;;5.07;1.60;;;;;;;;;;5053846;28;20533;-66
2022/05/21 01:17:27;;;;;;;4.90;1.70;;;;;;;;;;5053717;28;20017;-66
2022/05/21 01:20:00;;;;;;;4.45;1.92;;;;;;;;;;5053845;28;20028;-65
2022/05/21 01:22:27;;;;;;;6.85;1.85;;;;;;;;;;5052147;28;20417;-65
2022/05/21 01:24:53;;;;;;;2.70;1.90;;;;;;;;;;5053872;28;20364;-66
2022/05/21 01:27:19;;;;;;;3.80;1.60;;;;;;;;;;5053815;28;20485;-65
2022/05/21 01:29:47;;;;;;;6.50;1.70;;;;;;;;;;5053138;28;20056;-66
2022/05/21 01:32:17;;;;;;;4.30;1.60;;;;;;;;;;5053647;28;20029;-66
2022/05/21 01:34:43;;;;;;;3.15;1.52;;;;;;;;;;5053445;28;20033;-64
2022/05/21 01:37:09;;;;;;;5.93;1.58;;;;;;;;;;5053242;28;20384;-65
2022/05/21 01:39:35;;;;;;;3.70;1.63;;;;;;;;;;5053447;28;20028;-66
2022/05/21 01:42:01;;;;;;;4.35;1.80;;;;;;;;;;5053432;28;20028;-65
2022/05/21 01:44:39;;;;;;;4.72;1.95;;;;;;;;;;5052687;28;20029;-65
2022/05/21 01:47:09;;;;;;;4.43;1.83;;;;;;;;;;5053351;28;20484;-65
2022/05/21 01:49:36;;;;;;;5.82;1.95;;;;;;;;;;5053280;28;20433;-65
2022/05/21 01:52:03;;;;;;;4.18;1.60;;;;;;;;;;5053225;28;20060;-65
2022/05/21 01:54:29;;;;;;;4.95;1.60;;;;;;;;;;5052946;28;20075;-66
2022/05/21 01:56:55;;;;;;;2.90;1.75;;;;;;;;;;5053257;28;20082;-65
2022/05/21 01:59:21;;;;;;;7.05;1.60;;;;;;;;;;5053116;28;20377;-65
2022/05/21 02:01:48;;;;;;;3.08;1.30;;;;;;;;;;5052956;28;20033;-65
2022/05/21 02:04:15;;;;;;;4.80;1.60;;;;;;;;;;5052979;28;20385;-65
2022/05/21 02:06:42;;;;;;;3.13;1.48;;;;;;;;;;5052856;28;20070;-65
2022/05/21 02:09:08;;;;;;;6.00;1.33;;;;;;;;;;5052908;28;20104;-65
2022/05/21 02:11:34;;;;;;;7.00;1.42;;;;;;;;;;5053039;28;20037;-65
2022/05/21 02:14:00;;;;;;;3.33;1.45;;;;;;;;;;5053127;28;20087;-65
2022/05/21 02:16:28;;;;;;;5.60;1.38;;;;;;;;;;5052828;28;20481;-65
2022/05/21 02:18:54;;;;;;;3.90;1.30;;;;;;;;;;5052991;28;20017;-66
2022/05/21 02:21:20;;;;;;;8.38;1.58;;;;;;;;;;5052930;28;20025;-65
2022/05/21 02:23:46;;;;;;;13.82;2.45;;;;;;;;;;5052799;28;20104;-64
2022/05/21 02:26:12;;;;;;;4.28;1.25;;;;;;;;;;5052929;28;20489;-65
2022/05/21 02:28:38;;;;;;;4.53;1.23;;;;;;;;;;5052727;28;20104;-65
2022/05/21 02:31:04;;;;;;;17.48;1.70;;;;;;;;;;5052854;28;20139;-65
2022/05/21 02:33:31;;;;;;;9.55;1.52;;;;;;;;;;5052445;28;20025;-65
2022/05/21 02:35:57;;;;;;;11.38;1.65;;;;;;;;;;5056243;28;20044;-65
2022/05/21 02:41:11;;;;;;;2.03;1.50;;;;;;;;;;5056640;28;20040;-65
2022/05/21 02:43:37;;;;;;;4.07;1.63;;;;;;;;;;5056893;28;20346;-65
2022/05/21 02:46:03;;;;;;;5.45;1.50;;;;;;;;;;5056708;28;20029;-65
2022/05/21 02:48:30;;;;;;;4.55;1.23;;;;;;;;;;5056540;28;20021;-65
2022/05/21 02:50:56;;;;;;;8.10;1.85;;;;;;;;;;5056455;28;20389;-65
2022/05/21 02:53:22;;;;;;;6.68;1.70;;;;;;;;;;5056615;28;20045;-65
2022/05/21 02:55:51;;;;;;;3.60;1.88;;;;;;;;;;5056453;28;20087;-65
2022/05/21 02:58:17;;;;;;;7.78;1.70;;;;;;;;;;5056489;28;20028;-64
2022/05/21 03:00:43;;;;;;;8.23;1.95;;;;;;;;;;5056670;28;20029;-65
2022/05/21 03:03:10;;;;;;;18.25;2.13;;;;;;;;;;5056428;28;20493;-66
2022/05/21 03:05:36;;;;;;;5.45;1.60;;;;;;;;;;5056416;28;20036;-65
2022/05/21 03:10:20;;;;;;;7.68;1.80;;;;;;;;;;5056265;28;20024;-65
2022/05/21 03:10:51;;;;;;;3.88;1.80;;;;;;;;;;5056553;28;20028;-65
2022/05/21 03:13:17;;;;;;;5.10;1.70;;;;;;;;;;5056731;28;20027;-65
2022/05/21 03:15:43;;;;;;;3.60;1.67;;;;;;;;;;5056212;28;20037;-65
2022/05/21 03:18:11;;;;;;;5.10;1.60;;;;;;;;;;5056123;28;20560;-65
2022/05/21 03:20:37;;;;;;;4.85;1.83;;;;;;;;;;5056032;28;20037;-65
2022/05/21 03:23:04;;;;;;;2.25;1.60;;;;;;;;;;5056109;28;20021;-65
2022/05/21 03:25:31;;;;;;;4.60;1.77;;;;;;;;;;5056255;28;20385;-65
2022/05/21 03:27:57;;;;;;;6.25;1.73;;;;;;;;;;5056149;28;20355;-65
2022/05/21 03:30:25;;;;;;;4.25;1.75;;;;;;;;;;5055997;28;20428;-64
2022/05/21 03:32:51;;;;;;;4.30;1.75;;;;;;;;;;5056233;28;20017;-65
2022/05/21 03:35:17;;;;;;;6.60;2.00;;;;;;;;;;5056032;28;20040;-65
2022/05/21 03:37:44;;;;;;;10.05;2.03;;;;;;;;;;5056013;28;20025;-65
2022/05/21 03:40:11;;;;;;;5.40;1.50;;;;;;;;;;5055724;28;20056;-65
2022/05/21 03:42:38;;;;;;;10.63;2.25;;;;;;;;;;5055661;28;20025;-65
2022/05/21 03:45:05;;;;;;;2.45;1.52;;;;;;;;;;5055707;28;20390;-65
2022/05/21 03:47:31;;;;;;;7.47;1.70;;;;;;;;;;5055535;28;20028;-65
2022/05/21 03:49:57;;;;;;;6.18;1.80;;;;;;;;;;5055456;28;20033;-65
2022/05/21 03:52:23;;;;;;;7.15;1.80;;;;;;;;;;5054998;28;20049;-65
2022/05/21 03:54:49;;;;;;;6.05;1.77;;;;;;;;;;5055697;28;20033;-65
2022/05/21 03:57:16;;;;;;;5.88;1.60;;;;;;;;;;5055545;28;20108;-65
2022/05/21 03:59:43;;;;;;;6.32;1.80;;;;;;;;;;5055448;28;20393;-65
2022/05/21 04:02:09;;;;;;;5.50;1.90;;;;;;;;;;5055053;28;20462;-65
2022/05/21 04:04:35;;;;;;;3.72;1.52;;;;;;;;;;5055182;28;20025;-64
2022/05/21 04:07:02;;;;;;;4.45;2.30;;;;;;;;;;5055324;28;20036;-65
2022/05/21 04:09:28;;;;;;;6.13;1.60;;;;;;;;;;5055183;28;20021;-65
2022/05/21 04:11:54;;;;;;;5.13;2.03;;;;;;;;;;5055162;28;20090;-66
2022/05/21 04:14:21;;;;;;;2.63;1.52;;;;;;;;;;5055218;28;20079;-65
2022/05/21 04:16:47;;;;;;;8.35;1.73;;;;;;;;;;5055231;28;20064;-66
2022/05/21 04:19:13;;;;;;;2.92;1.58;;;;;;;;;;5055643;28;20127;-65
2022/05/21 04:21:39;;;;;;;8.30;1.88;;;;;;;;;;5055202;28;20033;-65
2022/05/21 04:24:05;;;;;;;4.80;1.60;;;;;;;;;;5054803;28;20033;-65
2022/05/21 04:26:32;;;;;;;3.67;1.60;;;;;;;;;;5054560;28;20028;-65
2022/05/21 04:28:58;;;;;;;4.57;1.80;;;;;;;;;;5054566;28;20488;-65
2022/05/21 04:31:24;;;;;;;8.93;2.00;;;;;;;;;;5054670;28;20040;-65
2022/05/21 04:33:50;;;;;;;12.48;2.10;;;;;;;;;;5054867;28;20599;-65
2022/05/21 04:36:19;;;;;;;5.53;1.63;;;;;;;;;;5054396;28;20120;-65
2022/05/21 04:38:46;;;;;;;3.38;1.70;;;;;;;;;;5054379;28;20134;-65
2022/05/21 04:41:13;;;;;;;5.65;1.83;;;;;;;;;;5054302;28;20040;-67
2022/05/21 04:43:39;;;;;;;6.32;1.60;;;;;;;;;;5054604;28;20029;-67
2022/05/21 04:46:06;;;;;;;3.55;1.70;;;;;;;;;;5054426;28;20025;-67
2022/05/21 04:48:32;;;;;;;5.88;2.15;;;;;;;;;;5054488;28;20028;-67
2022/05/21 04:50:59;;;;;;;5.80;1.88;;;;;;;;;;5054596;28;20021;-67
2022/05/21 04:53:25;;;;;;;3.80;1.40;;;;;;;;;;5054151;28;20048;-67
2022/05/21 04:55:51;;;;;;;7.13;2.17;;;;;;;;;;5053286;28;20124;-67
2022/05/21 04:58:17;;;;;;;5.90;2.10;;;;;;;;;;5053608;28;20132;-67
2022/05/21 05:00:43;;;;;;;3.42;1.48;;;;;;;;;;5054155;28;20052;-67
2022/05/21 05:03:13;;;;;;;11.95;1.60;;;;;;;;;;5053728;28;20087;-68
2022/05/21 05:05:40;;;;;;;3.63;1.60;;;;;;;;;;5054011;28;20492;-67
2022/05/21 05:08:06;;;;;;;5.78;2.15;;;;;;;;;;5054039;28;20052;-67
2022/05/21 05:10:33;;;;;;;5.90;1.60;;;;;;;;;;5054064;28;20039;-68
2022/05/21 05:12:59;;;;;;;3.00;1.33;;;;;;;;;;5054054;28;20404;-69
2022/05/21 05:15:25;;;;;;;5.60;1.60;;;;;;;;;;5053839;28;20067;-67
2022/05/21 05:17:57;;;;;;;4.30;1.20;;;;;;;;;;5054126;28;20021;-67
2022/05/21 05:20:23;;;;;;;2.88;1.38;;;;;;;;;;5054033;28;20071;-67
2022/05/21 05:22:50;;;;;;;5.55;1.27;;;;;;;;;;5053663;28;20027;-66
2022/05/21 05:25:16;;;;;;;2.35;1.10;;;;;;;;;;5053967;28;20028;-67
2022/05/21 05:27:43;;;;;;;2.95;1.30;;;;;;;;;;5053882;28;20029;-67
2022/05/21 05:30:09;;;;;;;3.90;1.30;;;;;;;;;;5053412;28;20029;-67
2022/05/21 05:32:35;;;;;;;2.47;1.20;;;;;;;;;;5053233;28;20032;-67
2022/05/21 05:35:01;;;;;;;2.95;1.42;;;;;;;;;;5053490;28;20397;-67
2022/05/21 05:37:28;;;;;;;3.28;1.10;;;;;;;;;;5052547;28;20025;-66
2022/05/21 05:39:57;;;;;;;6.05;1.50;;;;;;;;;;5052696;28;20029;-64
2022/05/21 05:42:23;;;;;;;5.05;1.33;;;;;;;;;;5053618;28;20027;-64
2022/05/21 05:44:49;;;;;;;4.63;1.35;;;;;;;;;;5052722;28;20469;-64
2022/05/21 05:47:15;;;;;;;5.10;1.50;;;;;;;;;;5051026;28;20481;-67
2022/05/21 05:49:41;;;;;;;7.15;1.15;;;;;;;;;;5052587;28;20568;-65
2022/05/21 05:52:11;;;;;;;8.18;1.33;;;;;;;;;;5052183;28;20064;-67
2022/05/21 05:54:37;;;;;;;4.45;1.40;;;;;;;;;;5032574;28;20159;-67
2022/05/21 05:57:03;;;;;;;7.95;1.27;;;;;;;;;;5033555;28;20034;-67
2022/05/21 06:05:00;;;;;;;4.47;1.30;;;;;;;;;;5052556;28;20028;-68
2022/05/21 06:07:26;;;;;;;4.47;1.13;;;;;;;;;;5052187;28;20393;-67
2022/05/21 06:09:54;;;;;;;3.75;1.30;;;;;;;;;;5051435;28;20022;-66
2022/05/21 06:12:20;;;;;;;5.78;1.35;;;;;;;;;;5052325;28;20390;-66
2022/05/21 06:14:46;;;;;;;4.22;1.30;;;;;;;;;;5051594;28;20043;-65
2022/05/21 06:17:12;;;;;;;2.58;1.15;;;;;;;;;;5052783;28;20060;-64
2022/05/21 06:19:38;;;;;;;5.50;1.17;;;;;;;;;;5052938;28;20473;-65
2022/05/21 06:22:05;;;;;;;2.63;1.33;;;;;;;;;;5052270;28;20025;-64
2022/05/21 06:24:35;;;;;;;4.15;1.30;;;;;;;;;;5052542;28;20439;-66
2022/05/21 06:27:01;;;;;;;3.30;1.40;;;;;;;;;;5051964;28;20104;-67
2022/05/21 06:29:27;;;;;;;4.43;1.20;;;;;;;;;;5051935;28;20477;-65
2022/05/21 06:31:53;;;;;;;3.38;1.15;;;;;;;;;;5052005;28;20028;-66
2022/05/21 06:34:20;;;;;;;6.55;1.50;;;;;;;;;;5052906;28;20060;-66
2022/05/21 06:36:46;;;;;;;4.70;1.30;;;;;;;;;;5053035;28;20025;-66
2022/05/21 06:39:12;;;;;;;3.20;1.40;;;;;;;;;;5052730;28;20022;-66
2022/05/21 06:41:38;;;;;;;4.00;1.38;;;;;;;;;;5052185;28;20025;-66
2022/05/21 06:44:05;;;;;;;5.30;1.60;;;;;;;;;;5052702;28;20024;-66
2022/05/21 06:46:31;;;;;;;5.55;2.55;;;;;;;;;;5051635;28;20462;-66
2022/05/21 06:48:57;;;;;;;6.30;1.48;;;;;;;;;;5051642;28;20043;-66
2022/05/21 06:51:23;;;;;;;3.90;1.23;;;;;;;;;;5052104;28;20028;-66
2022/05/21 06:53:49;;;;;;;3.92;1.20;;;;;;;;;;5051731;28;20045;-66
2022/05/21 06:56:16;;;;;;;7.63;1.50;;;;;;;;;;5052393;28;20037;-66
2022/05/21 06:58:43;;;;;;;2.47;1.10;;;;;;;;;;5051736;28;20056;-66
2022/05/21 07:01:09;;;;;;;4.40;1.27;;;;;;;;;;5051047;28;20491;-66
2022/05/21 07:03:35;;;;;;;6.65;1.98;;;;;;;;;;5051204;28;20056;-66
2022/05/21 07:08:47;;;;;;;6.63;1.60;;;;;;;;;;5052879;28;20539;-66
2022/05/21 07:11:13;;;;;;;2.47;1.23;;;;;;;;;;5052796;28;20108;-66
2022/05/21 07:13:40;;;;;;;3.53;1.27;;;;;;;;;;5052207;28;20470;-66
2022/05/21 07:16:06;;;;;;;5.32;1.63;;;;;;;;;;5052797;28;20072;-66
2022/05/21 07:18:32;;;;;;;3.80;1.55;;;;;;;;;;5052995;28;20029;-66
2022/05/21 07:20:58;;;;;;;3.33;1.30;;;;;;;;;;5054598;28;20017;-66
2022/05/21 07:23:25;;;;;;;12.18;1.50;;;;;;;;;;5056184;28;20029;-66
2022/05/21 07:25:52;;;;;;;3.05;1.50;;;;;;;;;;5056218;28;20028;-66
2022/05/21 07:28:18;;;;;;;4.07;1.30;;;;;;;;;;5056593;28;20020;-66
2022/05/21 07:30:45;;;;;;;4.20;1.27;;;;;;;;;;5056296;28;20029;-66
2022/05/21 07:33:15;;;;;;;7.78;1.52;;;;;;;;;;5056070;28;20059;-66
2022/05/21 07:35:42;;;;;;;4.57;1.40;;;;;;;;;;5056055;28;20048;-66
2022/05/21 07:38:09;;;;;;;4.75;1.52;;;;;;;;;;5056021;28;20428;-66
2022/05/21 07:40:36;;;;;;;4.93;1.60;;;;;;;;;;5055923;28;20238;-66
2022/05/21 07:43:14;;;;;;;5.72;1.63;;;;;;;;;;5054699;28;20056;-66
2022/05/21 07:45:41;;;;;;;3.28;1.60;;;;;;;;;;5053043;28;20037;-66
2022/05/21 07:48:09;;;;;;;4.13;1.40;;;;;;;;;;5053917;28;20083;-66
2022/05/21 07:50:36;;;;;;;7.43;1.60;;;;;;;;;;5055928;28;20025;-66
2022/05/21 07:53:03;;;;;;;5.22;1.67;;;;;;;;;;5055490;28;20139;-66
2022/05/21 07:55:29;;;;;;;2.80;1.63;;;;;;;;;;5055691;28;20059;-66
2022/05/21 07:57:55;;;;;;;3.95;1.60;;;;;;;;;;5055449;28;20501;-66
2022/05/21 08:00:21;;;;;;;6.70;1.83;;;;;;;;;;5055436;28;20025;-66
2022/05/21 08:02:47;;;;;;;5.43;1.50;;;;;;;;;;5055409;28;20021;-66
2022/05/21 08:05:13;;;;;;;4.40;1.38;;;;;;;;;;5055381;28;20044;-66
2022/05/21 08:07:39;;;;;;;8.90;1.90;;;;;;;;;;5054504;28;20036;-66
2022/05/21 08:10:06;;;;;;;6.40;1.52;;;;;;;;;;5052527;28;20033;-66
2022/05/21 08:12:32;;;;;;;11.88;1.88;;;;;;;;;;5052460;28;20020;-67
2022/05/21 08:14:58;;;;;;;7.47;1.50;;;;;;;;;;5053892;28;20033;-66
2022/05/21 08:17:24;;;;;;;10.43;1.58;;;;;;;;;;5054975;28;20389;-66
2022/05/21 08:19:50;;;;;;;8.68;1.60;;;;;;;;;;5055159;28;20143;-66
2022/05/21 08:27:46;;;;;;;6.30;1.60;;;;;;;;;;5055410;28;20080;-66
2022/05/21 08:30:12;;;;;;;4.18;1.77;;;;;;;;;;5053569;28;20383;-66
2022/05/21 08:32:38;;;;;;;13.70;1.92;;;;;;;;;;5053775;28;20071;-66
2022/05/21 08:35:04;;;;;;;7.32;1.60;;;;;;;;;;5054571;28;20461;-66
2022/05/21 08:37:30;;;;;;;11.93;1.65;;;;;;;;;;5054751;28;20029;-66
2022/05/21 08:39:56;;;;;;;5.32;1.70;;;;;;;;;;5054828;28;20032;-66
2022/05/21 08:42:45;;;;;;;5.05;1.60;;;;;;;;;;5054812;28;20071;-66
2022/05/21 08:45:22;;;;;;;5.20;1.65;;;;;;;;;;5054179;28;20029;-66
2022/05/21 08:47:53;;;;;;;2.08;1.40;;;;;;;;;;5054786;28;20025;-66
2022/05/21 08:50:21;;;;;;;10.80;1.67;;;;;;;;;;5054623;28;20057;-66
2022/05/21 08:52:53;;;;;;;6.10;1.40;;;;;;;;;;5054156;28;20049;-66
2022/05/21 08:55:21;;;;;;;8.02;1.52;;;;;;;;;;5054135;28;20386;-67
2022/05/21 08:57:49;;;;;;;6.15;1.70;;;;;;;;;;5054354;28;20377;-66
2022/05/21 09:00:33;;;;;;;4.68;1.77;;;;;;;;;;5054111;28;20025;-66
2022/05/21 09:02:59;;;;;;;5.57;1.80;;;;;;;;;;5054257;28;20047;-66
2022/05/21 09:05:25;;;;;;;4.88;1.48;;;;;;;;;;5054151;28;20021;-66
2022/05/21 09:08:10;;;;;;;2.33;1.25;;;;;;;;;;5053948;28;20072;-66
2022/05/21 09:10:36;;;;;;;7.75;2.08;;;;;;;;;;5054076;28;20029;-66
2022/05/21 09:13:03;;;;;;;2.95;1.63;;;;;;;;;;5054249;28;20021;-66
2022/05/21 09:18:14;;;;;;;5.45;2.00;;;;;;;;;;5054137;28;20040;-66
2022/05/21 09:20:56;;;;;;;4.35;2.08;;;;;;;;;;5054186;28;20082;-66
2022/05/21 09:23:22;;;;;;;6.60;1.67;;;;;;;;;;5053978;28;20469;-66
2022/05/21 09:26:03;;;;;;;1.80;1.48;;;;;;;;;;5053736;28;20040;-66
2022/05/21 09:28:29;;;;;;;3.67;1.60;;;;;;;;;;5053928;28;20087;-66
2022/05/21 09:30:57;;;;;;;4.85;1.73;;;;;;;;;;5053830;28;20462;-66
2022/05/21 09:33:42;;;;;;;4.28;1.85;;;;;;;;;;5053617;28;20040;-66
2022/05/21 09:36:09;;;;;;;4.88;1.75;;;;;;;;;;5053774;28;20036;-66
2022/05/21 09:38:49;;;;;;;5.60;2.58;;;;;;;;;;5053777;28;20086;-66
2022/05/21 09:41:20;;;;;;;4.55;2.00;;;;;;;;;;5053694;28;20109;-66
2022/05/21 09:46:34;;;;;;;4.90;1.83;;;;;;;;;;5053675;28;20082;-67
2022/05/21 09:49:14;;;;;;;7.53;2.50;;;;;;;;;;5053716;28;20063;-66
2022/05/21 09:51:40;;;;;;;4.60;1.77;;;;;;;;;;5053533;28;20051;-66
2022/05/21 09:54:19;;;;;;;6.45;1.73;;;;;;;;;;5053333;28;20056;-66
2022/05/21 09:56:51;;;;;;;10.32;2.13;;;;;;;;;;5053406;28;20033;-66
2022/05/21 09:59:18;;;;;;;6.25;1.60;;;;;;;;;;5052940;28;20487;-66
2022/05/21 10:01:46;;;;;;;7.38;2.70;;;;;;;;;;5053506;28;20025;-66
2022/05/21 10:04:20;;;;;;;6.35;2.20;;;;;;;;;;5053103;28;20032;-66
2022/05/21 10:06:49;;;;;;;9.00;1.85;;;;;;;;;;5053078;28;20044;-66
2022/05/21 10:12:13;;;;;;;12.18;2.13;;;;;;;;;;5052821;28;20043;-66
2022/05/21 10:14:41;;;;;;;8.95;2.25;;;;;;;;;;5052837;28;20021;-67
2022/05/21 10:17:17;;;;;;;5.97;1.83;;;;;;;;;;5053384;28;20025;-66
2022/05/21 10:19:54;;;;;;;3.00;1.60;;;;;;;;;;5053072;28;20083;-66
2022/05/21 10:22:26;;;;;;;5.82;1.67;;;;;;;;;;5053275;28;20063;-66
2022/05/21 10:25:11;;;;;;;6.20;1.92;;;;;;;;;;5053110;28;20029;-66
2022/05/21 10:27:56;;;;;;;4.32;1.83;;;;;;;;;;5053219;28;20025;-66
2022/05/21 10:30:22;;;;;;;9.23;1.90;;;;;;;;;;5053021;28;20029;-66
2022/05/21 10:33:06;;;;;;;9.13;1.92;;;;;;;;;;5052742;28;20045;-66
2022/05/21 10:35:51;;;;;;;6.18;1.92;;;;;;;;;;5052769;28;20033;-66
2022/05/21 10:38:35;;;;;;;10.98;1.70;;;;;;;;;;5052976;28;20420;-66
2022/05/21 10:41:19;;;;;;;4.28;1.98;;;;;;;;;;5052731;28;20359;-66
2022/05/21 10:44:03;;;;;;;7.15;2.00;;;;;;;;;;5052784;28;20024;-66
2022/05/21 10:46:51;;;;;;;5.53;1.98;;;;;;;;;;5052763;28;20135;-66
2022/05/21 10:49:23;;;;;;;2.78;2.00;;;;;;;;;;5052776;28;20061;-66
2022/05/21 10:52:02;;;;;;;7.50;2.25;;;;;;;;;;5052833;28;20023;-66
2022/05/21 10:54:28;;;;;;;3.55;1.92;;;;;;;;;;5052632;28;20489;-66
2022/05/21 10:57:10;;;;;;;5.40;1.83;;;;;;;;;;5056169;28;20044;-66
2022/05/21 10:59:42;;;;;;;4.72;1.70;;;;;;;;;;5056703;28;20103;-66
2022/05/21 11:02:11;;;;;;;6.57;1.95;;;;;;;;;;5056788;28;20029;-66
2022/05/21 11:04:53;;;;;;;8.55;1.90;;;;;;;;;;5056465;28;20029;-66
2022/05/21 11:07:40;;;;;;;6.50;2.00;;;;;;;;;;5056712;28;20036;-66
2022/05/21 11:10:09;;;;;;;6.60;2.33;;;;;;;;;;5056566;28;20071;-66
2022/05/21 11:12:53;;;;;;;6.50;1.75;;;;;;;;;;5056439;28;20111;-66
2022/05/21 11:15:39;;;;;;;6.40;1.60;;;;;;;;;;5056238;28;20033;-66
2022/05/21 11:18:24;;;;;;;7.28;1.80;;;;;;;;;;5056311;28;20481;-66
2022/05/21 11:20:59;;;;;;;7.57;2.05;;;;;;;;;;5056489;28;20025;-66
2022/05/21 11:23:30;;;;;;;7.72;1.80;;;;;;;;;;5056216;28;20064;-66
2022/05/21 11:25:59;;;;;;;5.38;1.90;;;;;;;;;;5055536;28;20029;-66
2022/05/21 11:28:28;;;;;;;6.00;1.70;;;;;;;;;;5055291;28;20060;-66
2022/05/21 11:30:58;;;;;;;9.32;1.80;;;;;;;;;;5055905;28;20108;-66
2022/05/21 11:39:01;;;;;;;5.13;1.60;;;;;;;;;;5052749;28;20098;-67
2022/05/21 11:41:53;;;;;;;4.57;1.52;;;;;;;;;;5054068;28;20390;-66
2022/05/21 11:47:08;;;;;;;7.85;1.67;;;;;;;;;;5056130;28;20534;-67
2022/05/21 11:49:37;;;;;;;9.18;1.90;;;;;;;;;;5054173;28;20422;-67
2022/05/21 11:52:22;;;;;;;8.40;2.00;;;;;;;;;;5054643;28;20025;-66
2022/05/21 11:54:48;;;;;;;12.38;2.03;;;;;;;;;;5054862;28;20094;-67
2022/05/21 11:57:29;;;;;;;6.93;1.70;;;;;;;;;;5054727;28;20423;-66
2022/05/21 11:59:55;;;;;;;4.47;1.70;;;;;;;;;;5054927;28;20033;-66
2022/05/21 12:02:25;;;;;;;6.57;2.40;;;;;;;;;;5054686;28;20033;-67
2022/05/21 12:05:01;;;;;;;9.25;1.90;;;;;;;;;;5054598;28;20024;-66
2022/05/21 12:07:43;;;;;;;4.07;1.98;;;;;;;;;;5053855;28;20049;-66
2022/05/21 12:10:13;;;;;;;5.78;1.90;;;;;;;;;;5055212;28;20029;-66
2022/05/21 12:12:59;;;;;;;9.60;2.63;;;;;;;;;;5054695;28;20025;-67
2022/05/21 12:15:34;;;;;;;11.23;1.95;;;;;;;;;;5054802;28;20037;-67
2022/05/21 12:18:03;;;;;;;6.25;2.20;;;;;;;;;;5054868;28;20029;-67
2022/05/21 12:20:41;;;;;;;9.35;2.53;;;;;;;;;;5054863;28;20087;-66
2022/05/21 12:23:11;;;;;;;8.13;1.80;;;;;;;;;;5055064;28;20060;-66
2022/05/21 12:25:44;;;;;;;4.88;2.10;;;;;;;;;;5054809;28;20025;-66
2022/05/21 12:28:11;;;;;;;6.72;2.30;;;;;;;;;;5054647;28;20079;-66
2022/05/21 12:30:37;;;;;;;5.25;1.77;;;;;;;;;;5054843;28;20045;-66
2022/05/21 12:33:06;;;;;;;7.43;1.90;;;;;;;;;;5054653;28;20104;-66
2022/05/21 12:35:35;;;;;;;8.60;2.08;;;;;;;;;;5054288;28;20033;-66
2022/05/21 12:38:07;;;;;;;9.73;2.00;;;;;;;;;;5054707;28;20086;-66
2022/05/21 12:40:45;;;;;;;5.05;1.95;;;;;;;;;;5052436;28;20033;-67
2022/05/21 12:43:12;;;;;;;7.75;2.00;;;;;;;;;;5051678;28;20123;-67
2022/05/21 12:45:42;;;;;;;5.50;1.85;;;;;;;;;;5052372;28;20025;-66
2022/05/21 12:48:44;;;;;;;2.35;1.70;;;;;;;;;;5054057;28;20054;-67
2022/05/21 12:51:12;;;;;;;6.88;1.88;;;;;;;;;;5052070;28;20029;-67
2022/05/21 12:53:42;;;;;;;8.80;1.90;;;;;;;;;;5052942;28;20048;-68
2022/05/21 12:56:27;;;;;;;11.77;1.95;;;;;;;;;;5052737;28;20551;-67
2022/05/21 12:59:11;;;;;;;8.63;2.05;;;;;;;;;;5050621;28;20504;-67
2022/05/21 13:01:43;;;;;;;4.25;1.63;;;;;;;;;;5049934;28;20025;-66
2022/05/21 13:04:22;;;;;;;8.73;1.90;;;;;;;;;;5051709;28;20056;-66
2022/05/21 13:06:52;;;;;;;5.70;1.67;;;;;;;;;;5053228;28;20045;-66
2022/05/21 13:09:18;;;;;;;8.13;2.08;;;;;;;;;;5054385;28;20036;-66
2022/05/21 13:11:44;;;;;;;6.30;1.90;;;;;;;;;;5053937;28;20023;-66
2022/05/21 13:14:13;;;;;;;10.02;1.95;;;;;;;;;;5053653;28;20029;-66
2022/05/21 13:17:08;;;;;;;5.40;2.20;;;;;;;;;;5050420;28;20109;-66
2022/05/21 13:19:37;;;;;;;6.18;2.00;;;;;;;;;;5050189;28;20033;-66
2022/05/21 13:22:14;;;;;;;7.35;1.50;;;;;;;;;;5052580;28;20059;-67
2022/05/21 13:24:58;;;;;;;5.95;1.70;;;;;;;;;;5053370;28;20024;-67
2022/05/21 13:27:24;;;;;;;9.10;1.60;;;;;;;;;;5053909;28;20056;-67
2022/05/21 13:29:52;;;;;;;2.03;1.30;;;;;;;;;;5053304;28;20066;-67
2022/05/21 13:32:31;;;;;;;6.97;1.95;;;;;;;;;;5053190;28;20025;-66
2022/05/21 13:35:01;;;;;;;7.40;1.80;;;;;;;;;;5052951;28;20279;-66
2022/05/21 13:37:46;;;;;;;8.95;1.98;;;;;;;;;;5052027;28;20053;-66
2022/05/21 13:40:14;;;;;;;5.20;1.80;;;;;;;;;;5052812;28;20033;-67
2022/05/21 13:42:41;;;;;;;3.65;1.50;;;;;;;;;;5053097;28;20021;-67
2022/05/21 13:45:09;;;;;;;9.07;1.85;;;;;;;;;;5053021;28;20029;-67
2022/05/21 13:47:38;;;;;;;3.35;1.80;;;;;;;;;;5052866;28;20023;-66
2022/05/21 13:50:05;;;;;;;3.58;1.73;;;;;;;;;;5053173;28;20033;-66
2022/05/21 13:52:32;;;;;;;4.63;2.00;;;;;;;;;;5052649;28;20017;-67
2022/05/21 13:54:58;;;;;;;6.63;1.55;;;;;;;;;;5053388;28;20061;-66
2022/05/21 13:57:25;;;;;;;4.53;1.45;;;;;;;;;;5052714;28;20021;-66
2022/05/21 14:00:05;;;;;;;5.93;2.00;;;;;;;;;;5052039;28;20048;-68
2022/05/21 14:02:38;;;;;;;6.28;1.55;;;;;;;;;;5053132;28;20029;-66
2022/05/21 14:05:25;;;;;;;3.45;1.60;;;;;;;;;;5052982;28;20438;-66
2022/05/21 14:07:53;;;;;;;5.97;1.80;;;;;;;;;;5052818;28;20025;-67
2022/05/21 14:10:30;;;;;;;4.65;1.60;;;;;;;;;;5053283;28;20025;-67
2022/05/21 14:12:56;;;;;;;5.68;1.80;;;;;;;;;;5051988;28;20029;-67
2022/05/21 14:15:42;;;;;;;5.78;1.80;;;;;;;;;;5051610;28;20142;-66
2022/05/21 14:18:08;;;;;;;7.18;1.70;;;;;;;;;;5052097;28;20056;-66
2022/05/21 14:20:35;;;;;;;2.97;1.75;;;;;;;;;;5051657;28;20028;-66
2022/05/21 14:23:20;;;;;;;8.63;1.75;;;;;;;;;;5051189;28;20531;-66
2022/05/21 14:25:46;;;;;;;9.07;1.92;;;;;;;;;;5051933;28;20033;-67
2022/05/21 14:28:15;;;;;;;7.63;2.13;;;;;;;;;;5051738;28;20025;-65
2022/05/21 14:30:42;;;;;;;5.20;1.52;;;;;;;;;;5050907;28;20033;-66
2022/05/21 14:33:18;;;;;;;6.50;1.77;;;;;;;;;;5050613;28;20033;-68
2022/05/21 14:35:45;;;;;;;5.22;1.80;;;;;;;;;;5051558;28;20536;-68
2022/05/21 14:38:11;;;;;;;6.47;1.70;;;;;;;;;;5050895;28;20496;-67
2022/05/21 14:40:45;;;;;;;9.63;2.30;;;;;;;;;;5051577;28;20061;-66
2022/05/21 14:43:15;;;;;;;9.55;2.30;;;;;;;;;;5051073;28;20056;-69
2022/05/21 14:45:41;;;;;;;6.93;1.70;;;;;;;;;;5050174;28;20079;-68
2022/05/21 14:48:08;;;;;;;4.32;1.70;;;;;;;;;;5050517;28;20031;-68
2022/05/21 14:53:22;;;;;;;3.80;1.85;;;;;;;;;;5050937;28;20110;-68
2022/05/21 14:55:49;;;;;;;5.00;1.90;;;;;;;;;;5051077;28;20435;-67
2022/05/21 14:58:15;;;;;;;7.00;1.90;;;;;;;;;;5051192;28;20434;-67
2022/05/21 15:00:42;;;;;;;9.00;2.47;;;;;;;;;;5051606;28;20061;-66
2022/05/21 15:03:09;;;;;;;8.65;1.92;;;;;;;;;;5051773;28;20021;-68
2022/05/21 15:05:37;;;;;;;7.07;1.70;;;;;;;;;;5050637;28;20056;-66
2022/05/21 15:08:04;;;;;;;3.92;2.15;;;;;;;;;;5051164;28;20024;-67
2022/05/21 15:10:30;;;;;;;6.13;1.70;;;;;;;;;;5051712;28;20032;-68
2022/05/21 15:12:56;;;;;;;7.43;2.00;;;;;;;;;;5050660;28;20112;-66
2022/05/21 15:15:22;;;;;;;6.70;1.98;;;;;;;;;;5049665;28;20065;-66
2022/05/21 15:17:49;;;;;;;6.22;2.08;;;;;;;;;;5051269;28;20029;-67
2022/05/21 15:20:16;;;;;;;4.80;1.67;;;;;;;;;;5052082;28;20570;-67
2022/05/21 15:22:43;;;;;;;6.70;1.92;;;;;;;;;;5051540;28;20025;-67
2022/05/21 15:25:11;;;;;;;4.10;1.92;;;;;;;;;;5051895;28;20044;-67
2022/05/21 15:27:38;;;;;;;5.47;1.95;;;;;;;;;;5052127;28;20359;-67
2022/05/21 15:30:05;;;;;;;9.57;2.05;;;;;;;;;;5051737;28;20432;-67
2022/05/21 15:32:31;;;;;;;9.50;1.95;;;;;;;;;;5052344;28;20044;-66
2022/05/21 15:34:57;;;;;;;7.55;1.90;;;;;;;;;;5052176;28;20025;-66